createdAt,value
2022-11-18T00:01:20.803Z,100.00
2022-11-18T00:03:49.333Z,100.00
2022-11-18T00:06:19.937Z,100.00
2022-11-18T00:08:48.092Z,100.00
2022-11-18T00:11:37.833Z,100.00
2022-11-18T00:14:19.223Z,100.00
2022-11-18T00:16:50.265Z,100.00
2022-11-18T00:19:20.683Z,100.00
2022-11-18T00:21:48.065Z,100.00
2022-11-18T00:24:15.540Z,100.00
2022-11-18T00:26:42.767Z,100.00
2022-11-18T00:29:13.697Z,100.00
2022-11-18T00:31:41.075Z,100.00
2022-11-18T00:34:13.236Z,100.00
2022-11-18T00:36:42.016Z,100.00
2022-11-18T00:39:12.874Z,100.00
2022-11-18T00:41:58.686Z,100.00
2022-11-18T00:44:26.272Z,100.00
2022-11-18T00:46:53.968Z,100.00
2022-11-18T00:49:21.785Z,100.00
2022-11-18T00:51:48.860Z,100.00
2022-11-18T00:54:16.093Z,100.00
2022-11-18T00:56:43.148Z,100.00
2022-11-18T00:59:10.411Z,100.00
2022-11-18T01:01:37.861Z,100.00
2022-11-18T01:04:05.315Z,100.00
2022-11-18T01:06:32.573Z,100.00
2022-11-18T01:08:59.696Z,100.00
2022-11-18T01:11:45.469Z,100.00
2022-11-18T01:14:15.243Z,100.00
2022-11-18T01:16:42.428Z,100.00
2022-11-18T01:19:09.701Z,100.00
2022-11-18T01:21:36.767Z,100.00
2022-11-18T01:24:04.214Z,100.00
2022-11-18T01:26:31.096Z,100.00
2022-11-18T01:28:58.521Z,100.00
2022-11-18T01:31:25.703Z,100.00
2022-11-18T01:33:52.833Z,100.00
2022-11-18T01:36:23.772Z,100.00
2022-11-18T01:38:52.073Z,100.00
2022-11-18T01:41:21.436Z,100.00
2022-11-18T01:43:59.357Z,100.00
2022-11-18T01:46:29.844Z,100.00
2022-11-18T01:49:12.039Z,100.00
2022-11-18T01:51:50.951Z,100.00
2022-11-18T01:54:34.944Z,100.00
2022-11-18T01:57:06.247Z,100.00
2022-11-18T01:59:36.313Z,100.00
2022-11-18T02:02:09.480Z,100.00
2022-11-18T02:04:40.924Z,100.00
2022-11-18T02:07:08.370Z,100.00
2022-11-18T02:09:37.766Z,100.00
2022-11-18T02:12:06.929Z,100.00
2022-11-18T02:14:37.946Z,100.00
2022-11-18T02:17:23.278Z,100.00
2022-11-18T02:20:18.511Z,100.00
2022-11-18T02:23:16.509Z,100.00
2022-11-18T02:26:02.452Z,100.00
2022-11-18T02:28:47.938Z,100.00
2022-11-18T02:31:35.824Z,100.00
2022-11-18T02:34:14.874Z,100.00
2022-11-18T02:36:47.935Z,100.00
2022-11-18T02:39:25.268Z,100.00
2022-11-18T02:41:57.029Z,100.00
2022-11-18T02:44:33.113Z,100.00
2022-11-18T02:47:06.532Z,100.00
2022-11-18T02:49:41.561Z,100.00
2022-11-18T02:52:11.898Z,100.00
2022-11-18T02:54:42.311Z,100.00
2022-11-18T02:57:10.239Z,100.00
2022-11-18T02:59:37.055Z,100.00
2022-11-18T03:02:04.665Z,100.00
2022-11-18T03:04:33.875Z,100.00
2022-11-18T03:07:05.861Z,100.00
2022-11-18T03:09:39.506Z,100.00
2022-11-18T03:12:27.682Z,100.00
2022-11-18T03:15:13.071Z,100.00
2022-11-18T03:18:05.124Z,100.00
2022-11-18T03:20:47.754Z,100.00
2022-11-18T03:23:39.086Z,100.00
2022-11-18T03:26:12.880Z,100.00
2022-11-18T03:28:39.967Z,100.00
2022-11-18T03:31:22.066Z,100.00
2022-11-18T03:34:08.110Z,100.00
2022-11-18T03:36:43.875Z,100.00
2022-11-18T03:39:14.955Z,100.00
2022-11-18T03:41:49.585Z,100.00
2022-11-18T03:44:26.761Z,100.00
2022-11-18T03:47:00.650Z,100.00
2022-11-18T03:49:43.585Z,100.00
2022-11-18T03:52:18.505Z,100.00
2022-11-18T03:54:48.660Z,100.00
2022-11-18T03:57:21.763Z,100.00
2022-11-18T03:59:55.328Z,100.00
2022-11-18T04:02:26.111Z,100.00
2022-11-18T04:04:56.232Z,100.00
2022-11-18T04:07:26.545Z,100.00
2022-11-18T04:10:14.898Z,100.00
2022-11-18T04:13:06.156Z,100.00
2022-11-18T04:15:36.849Z,100.00
2022-11-18T04:18:04.237Z,100.00
2022-11-18T04:20:32.546Z,100.00
2022-11-18T04:23:00.296Z,100.00
2022-11-18T04:25:27.791Z,100.00
2022-11-18T04:27:55.364Z,100.00
2022-11-18T04:30:22.878Z,100.00
2022-11-18T04:32:51.922Z,100.00
2022-11-18T04:35:19.815Z,100.00
2022-11-18T04:37:47.192Z,100.00
2022-11-18T04:40:14.401Z,100.00
2022-11-18T04:42:41.855Z,100.00
2022-11-18T04:45:10.319Z,100.00
2022-11-18T04:47:38.625Z,100.00
2022-11-18T04:50:06.442Z,100.00
2022-11-18T04:52:33.822Z,100.00
2022-11-18T04:55:00.745Z,100.00
2022-11-18T04:57:28.049Z,100.00
2022-11-18T04:59:55.074Z,100.00
2022-11-18T05:02:22.557Z,100.00
2022-11-18T05:04:49.760Z,100.00
2022-11-18T05:07:17.377Z,100.00
2022-11-18T05:09:44.672Z,100.00
2022-11-18T05:12:32.151Z,100.00
2022-11-18T05:14:59.968Z,100.00
2022-11-18T05:17:27.341Z,100.00
2022-11-18T05:19:58.175Z,100.00
2022-11-18T05:22:25.528Z,100.00
2022-11-18T05:24:53.550Z,100.00
2022-11-18T05:27:20.585Z,100.00
2022-11-18T05:29:49.149Z,100.00
2022-11-18T05:32:16.590Z,100.00
2022-11-18T05:34:44.007Z,100.00
2022-11-18T05:37:12.631Z,100.00
2022-11-18T05:39:40.329Z,100.00
2022-11-18T05:42:26.891Z,100.00
2022-11-18T05:44:58.128Z,100.00
2022-11-18T05:47:27.292Z,100.00
2022-11-18T05:49:54.730Z,100.00
2022-11-18T05:52:21.731Z,100.00
2022-11-18T05:54:51.390Z,100.00
2022-11-18T05:57:19.678Z,100.00
2022-11-18T05:59:50.295Z,100.00
2022-11-18T06:02:26.408Z,100.00
2022-11-18T06:05:04.622Z,100.00
2022-11-18T06:07:50.196Z,100.00
2022-11-18T06:10:28.749Z,100.00
2022-11-18T06:13:01.584Z,100.00
2022-11-18T06:15:34.960Z,100.00
2022-11-18T06:18:29.303Z,100.00
2022-11-18T06:21:02.837Z,100.00
2022-11-18T06:23:34.631Z,100.00
2022-11-18T06:26:03.388Z,100.00
2022-11-18T06:28:31.677Z,100.00
2022-11-18T06:31:00.967Z,100.00
2022-11-18T06:33:29.106Z,100.00
2022-11-18T06:35:56.831Z,100.00
2022-11-18T06:38:25.611Z,100.00
2022-11-18T06:40:53.330Z,100.00
2022-11-18T06:43:39.447Z,100.00
2022-11-18T06:46:28.650Z,100.00
2022-11-18T06:48:57.519Z,100.00
2022-11-18T06:51:24.918Z,100.00
2022-11-18T06:53:55.602Z,100.00
2022-11-18T06:56:24.219Z,100.00
2022-11-18T06:58:59.939Z,100.00
2022-11-18T07:01:35.284Z,100.00
2022-11-18T07:04:03.253Z,100.00
2022-11-18T07:06:33.048Z,100.00
2022-11-18T07:09:02.887Z,100.00
2022-11-18T07:11:30.974Z,100.00
2022-11-18T07:13:58.881Z,100.00
2022-11-18T07:16:27.825Z,100.00
2022-11-18T07:18:56.082Z,100.00
2022-11-18T07:21:26.007Z,100.00
2022-11-18T07:23:53.866Z,100.00
2022-11-18T07:26:22.000Z,100.00
2022-11-18T07:28:50.477Z,100.00
2022-11-18T07:31:20.704Z,100.00
2022-11-18T07:33:49.067Z,100.00
2022-11-18T07:36:19.984Z,100.00
2022-11-18T07:38:50.902Z,100.00
2022-11-18T07:41:24.435Z,100.00
2022-11-18T07:43:57.584Z,100.00
2022-11-18T07:46:36.449Z,100.00
2022-11-18T07:49:12.470Z,100.00
2022-11-18T07:51:40.843Z,100.00
2022-11-18T07:54:18.134Z,100.00
2022-11-18T07:56:45.961Z,100.00
2022-11-18T07:59:16.714Z,100.00
2022-11-18T08:01:46.622Z,100.00
2022-11-18T08:04:14.327Z,100.00
2022-11-18T08:06:42.437Z,100.00
2022-11-18T08:09:10.640Z,100.00
2022-11-18T08:11:41.078Z,99.08
2022-11-18T08:14:09.480Z,98.85
2022-11-18T08:16:36.988Z,99.07
2022-11-18T08:19:05.284Z,98.71
2022-11-18T08:21:32.889Z,98.48
2022-11-18T08:24:01.285Z,96.99
2022-11-18T08:26:29.581Z,96.48
2022-11-18T08:29:01.652Z,95.91
2022-11-18T08:31:31.796Z,95.82
2022-11-18T08:34:00.722Z,95.08
2022-11-18T08:36:30.212Z,94.10
2022-11-18T08:38:58.938Z,94.97
2022-11-18T08:41:41.139Z,94.96
2022-11-18T08:44:12.378Z,94.31
2022-11-18T08:46:41.136Z,93.88
2022-11-18T08:49:09.465Z,93.76
2022-11-18T08:51:37.907Z,93.23
2022-11-18T08:54:05.835Z,92.36
2022-11-18T08:56:35.633Z,92.01
2022-11-18T08:59:02.766Z,92.21
2022-11-18T09:01:31.665Z,92.24
2022-11-18T09:04:00.196Z,91.60
2022-11-18T09:06:28.270Z,90.31
2022-11-18T09:09:03.474Z,90.00
2022-11-18T09:11:33.575Z,88.34
2022-11-18T09:16:48.662Z,88.99
2022-11-18T09:22:11.232Z,89.26
2022-11-18T09:24:39.855Z,88.76
2022-11-18T09:29:55.429Z,88.04
2022-11-18T09:32:25.566Z,87.56
2022-11-18T09:34:52.932Z,86.94
2022-11-18T09:37:20.338Z,86.39
2022-11-18T09:39:47.885Z,86.23
2022-11-18T09:42:39.993Z,86.28
2022-11-18T09:45:28.876Z,85.68
2022-11-18T09:47:59.983Z,86.11
2022-11-18T09:50:48.603Z,86.57
2022-11-18T09:53:23.810Z,86.83
2022-11-18T09:55:55.727Z,87.54
2022-11-18T09:58:30.640Z,87.73
2022-11-18T10:00:58.630Z,87.89
2022-11-18T10:03:35.174Z,88.89
2022-11-18T10:06:10.237Z,89.45
2022-11-18T10:08:51.613Z,89.47
2022-11-18T10:11:25.682Z,88.90
2022-11-18T10:14:13.317Z,88.44
2022-11-18T10:16:50.908Z,89.50
2022-11-18T10:19:52.909Z,90.35
2022-11-18T10:22:28.172Z,90.03
2022-11-18T10:25:01.353Z,89.25
2022-11-18T10:27:40.228Z,88.88
2022-11-18T10:30:28.521Z,88.59
2022-11-18T10:33:26.694Z,88.18
2022-11-18T10:36:27.109Z,87.85
2022-11-18T10:39:23.438Z,86.61
2022-11-18T10:41:53.605Z,86.63
2022-11-18T10:44:34.639Z,86.22
2022-11-18T10:47:31.636Z,84.99
2022-11-18T10:50:22.553Z,84.17
2022-11-18T10:52:53.833Z,83.22
2022-11-18T10:55:26.170Z,82.41
2022-11-18T10:57:57.236Z,81.68
2022-11-18T11:00:38.134Z,80.50
2022-11-18T11:03:26.571Z,79.94
2022-11-18T11:06:16.229Z,80.06
2022-11-18T11:08:59.338Z,80.90
2022-11-18T11:11:32.246Z,80.90
2022-11-18T11:14:06.473Z,79.71
2022-11-18T11:16:42.011Z,78.03
2022-11-18T11:19:12.387Z,76.91
2022-11-18T11:21:40.160Z,77.15
2022-11-18T11:24:13.468Z,75.78
2022-11-18T11:30:15.949Z,74.31
2022-11-18T11:32:55.225Z,72.79
2022-11-18T11:35:31.083Z,72.95
2022-11-18T11:38:01.050Z,72.58
2022-11-18T11:40:40.202Z,72.00
2022-11-18T11:43:35.241Z,70.85
2022-11-18T11:46:27.274Z,71.07
2022-11-18T11:49:18.357Z,70.78
2022-11-18T11:51:57.482Z,69.76
2022-11-18T11:54:46.833Z,69.07
2022-11-18T11:57:45.574Z,68.80
2022-11-18T12:00:18.637Z,68.03
2022-11-18T12:03:31.732Z,67.85
2022-11-18T12:05:59.517Z,68.51
2022-11-18T12:08:31.466Z,68.57
2022-11-18T12:11:06.256Z,68.72
2022-11-18T12:14:06.554Z,68.67
2022-11-18T12:16:55.540Z,68.80
2022-11-18T12:19:24.321Z,68.21
2022-11-18T12:21:58.406Z,68.27
2022-11-18T12:25:39.104Z,68.81
2022-11-18T12:28:09.150Z,68.86
2022-11-18T12:30:59.776Z,69.59
2022-11-18T12:34:31.903Z,70.18
2022-11-18T12:37:25.402Z,70.25
2022-11-18T12:40:31.556Z,70.08
2022-11-18T12:43:32.590Z,70.26
2022-11-18T12:45:59.941Z,70.22
2022-11-18T12:48:39.752Z,70.26
2022-11-18T12:51:15.689Z,69.97
2022-11-18T12:53:45.259Z,69.73
2022-11-18T12:56:29.134Z,69.37
2022-11-18T12:59:01.178Z,69.71
2022-11-18T13:01:36.658Z,69.85
2022-11-18T13:04:18.722Z,70.65
2022-11-18T13:06:47.578Z,71.12
2022-11-18T13:09:27.690Z,68.95
2022-11-18T13:11:58.850Z,69.69
2022-11-18T13:15:13.723Z,70.57
2022-11-18T13:17:52.096Z,71.11
2022-11-18T13:20:31.380Z,71.36
2022-11-18T13:23:22.186Z,71.08
2022-11-18T13:25:52.851Z,70.88
2022-11-18T13:28:42.497Z,70.26
2022-11-18T13:31:24.766Z,70.02
2022-11-18T13:33:53.299Z,68.65
2022-11-18T13:36:25.853Z,68.01
2022-11-18T13:38:55.739Z,67.60
2022-11-18T13:41:24.971Z,67.64
2022-11-18T13:43:54.129Z,67.46
2022-11-18T13:46:22.778Z,67.25
2022-11-18T13:48:57.693Z,67.17
2022-11-18T13:51:26.512Z,67.16
2022-11-18T13:53:54.604Z,66.77
2022-11-18T13:56:35.062Z,67.60
2022-11-18T13:59:20.663Z,68.02
2022-11-18T14:01:55.050Z,68.35
2022-11-18T14:04:26.028Z,68.52
2022-11-18T14:06:53.169Z,68.60
2022-11-18T14:09:24.205Z,68.92
2022-11-18T14:12:23.171Z,68.90
2022-11-18T14:14:50.726Z,69.60
2022-11-18T14:17:25.842Z,70.03
2022-11-18T14:19:55.185Z,70.96
2022-11-18T14:22:31.241Z,71.64
2022-11-18T14:25:04.065Z,71.45
2022-11-18T14:27:43.478Z,71.22
2022-11-18T14:30:40.102Z,71.99
2022-11-18T14:33:22.889Z,72.32
2022-11-18T14:35:52.749Z,72.81
2022-11-18T14:41:14.187Z,73.07
2022-11-18T14:43:41.837Z,73.41
2022-11-18T14:46:20.021Z,73.50
2022-11-18T14:48:47.317Z,74.04
2022-11-18T14:51:23.564Z,74.22
2022-11-18T14:53:58.457Z,74.86
2022-11-18T14:56:32.075Z,75.21
2022-11-18T14:58:59.462Z,75.72
2022-11-18T15:01:30.764Z,76.76
2022-11-18T15:03:58.443Z,77.84
2022-11-18T15:06:28.887Z,78.33
2022-11-18T15:08:56.255Z,78.58
2022-11-18T15:11:23.781Z,78.99
2022-11-18T15:13:52.730Z,79.60
2022-11-18T15:16:27.221Z,80.21
2022-11-18T15:19:00.230Z,80.55
2022-11-18T15:21:28.253Z,81.39
2022-11-18T15:23:55.285Z,81.99
2022-11-18T15:26:34.622Z,82.47
2022-11-18T15:29:02.567Z,83.01
2022-11-18T15:31:32.255Z,83.86
2022-11-18T15:34:05.256Z,84.49
2022-11-18T15:36:34.021Z,85.08
2022-11-18T15:39:01.279Z,85.85
2022-11-18T15:41:42.171Z,86.40
2022-11-18T15:44:11.166Z,87.71
2022-11-18T15:46:38.518Z,88.00
2022-11-18T15:49:09.100Z,88.46
2022-11-18T15:51:37.377Z,88.71
2022-11-18T15:54:04.490Z,88.99
2022-11-18T15:56:33.111Z,89.72
2022-11-18T15:59:03.635Z,90.21
2022-11-18T16:01:36.012Z,90.34
2022-11-18T16:04:04.336Z,90.96
2022-11-18T16:06:32.225Z,91.61
2022-11-18T16:09:00.547Z,92.07
2022-11-18T16:11:48.365Z,92.52
2022-11-18T16:14:18.830Z,93.21
2022-11-18T16:16:48.592Z,94.64
2022-11-18T16:19:18.437Z,95.31
2022-11-18T16:22:04.689Z,95.86
2022-11-18T16:24:31.745Z,96.19
2022-11-18T16:26:59.111Z,96.38
2022-11-18T16:29:26.385Z,96.77
2022-11-18T16:31:55.041Z,97.20
2022-11-18T16:34:25.408Z,97.64
2022-11-18T16:36:55.069Z,98.45
2022-11-18T16:39:26.130Z,98.87
2022-11-18T16:41:56.960Z,99.29
2022-11-18T16:44:25.615Z,99.98
2022-11-18T16:46:56.800Z,100.00
2022-11-18T16:49:26.402Z,100.00
2022-11-18T16:51:56.002Z,100.00
2022-11-18T16:54:29.490Z,100.00
2022-11-18T16:56:59.545Z,100.00
2022-11-18T16:59:29.149Z,100.00
2022-11-18T17:01:58.847Z,100.00
2022-11-18T17:04:28.504Z,100.00
2022-11-18T17:07:05.320Z,100.00
2022-11-18T17:09:33.081Z,100.00
2022-11-18T17:12:00.651Z,100.00
2022-11-18T17:14:30.361Z,100.00
2022-11-18T17:17:00.194Z,100.00
2022-11-18T17:19:27.308Z,100.00
2022-11-18T17:22:00.389Z,100.00
2022-11-18T17:24:28.202Z,100.00
2022-11-18T17:26:56.828Z,100.00
2022-11-18T17:29:24.402Z,100.00
2022-11-18T17:31:51.936Z,100.00
2022-11-18T17:34:21.926Z,100.00
2022-11-18T17:36:52.492Z,100.00
2022-11-18T17:39:21.034Z,100.00
2022-11-18T17:42:08.415Z,100.00
2022-11-18T17:44:36.553Z,100.00
2022-11-18T17:47:04.016Z,100.00
2022-11-18T17:49:31.904Z,100.00
2022-11-18T17:51:59.058Z,100.00
2022-11-18T17:54:26.240Z,100.00
2022-11-18T17:56:54.032Z,100.00
2022-11-18T17:59:25.537Z,100.00
2022-11-18T18:01:57.559Z,100.00
2022-11-18T18:04:26.693Z,100.00
2022-11-18T18:06:55.228Z,100.00
2022-11-18T18:09:30.089Z,100.00
2022-11-18T18:12:00.474Z,100.00
2022-11-18T18:14:27.441Z,100.00
2022-11-18T18:16:55.398Z,100.00
2022-11-18T18:19:23.914Z,100.00
2022-11-18T18:21:52.115Z,100.00
2022-11-18T18:24:21.112Z,100.00
2022-11-18T18:26:49.310Z,100.00
2022-11-18T18:29:16.526Z,100.00
2022-11-18T18:31:43.432Z,100.00
2022-11-18T18:34:10.854Z,100.00
2022-11-18T18:36:41.288Z,100.00
2022-11-18T18:39:08.529Z,100.00
2022-11-18T18:41:35.724Z,100.00
2022-11-18T18:44:18.079Z,100.00
2022-11-18T18:46:47.620Z,100.00
2022-11-18T18:49:15.996Z,100.00
2022-11-18T18:51:45.404Z,100.00
2022-11-18T18:54:18.334Z,100.00
2022-11-18T18:56:46.466Z,100.00
2022-11-18T18:59:13.693Z,100.00
2022-11-18T19:01:41.427Z,100.00
2022-11-18T19:04:13.640Z,100.00
2022-11-18T19:06:59.919Z,100.00
2022-11-18T19:09:28.800Z,100.00
2022-11-18T19:12:14.160Z,100.00
2022-11-18T19:14:42.469Z,100.00
2022-11-18T19:17:12.978Z,100.00
2022-11-18T19:20:01.539Z,100.00
2022-11-18T19:22:31.028Z,100.00
2022-11-18T19:24:59.389Z,100.00
2022-11-18T19:27:26.890Z,100.00
2022-11-18T19:29:54.047Z,100.00
2022-11-18T19:32:21.810Z,100.00
2022-11-18T19:34:49.347Z,100.00
2022-11-18T19:37:16.894Z,100.00
2022-11-18T19:39:43.765Z,100.00
2022-11-18T19:42:11.988Z,100.00
2022-11-18T19:44:52.579Z,100.00
2022-11-18T19:47:20.828Z,100.00
2022-11-18T19:49:48.041Z,100.00
2022-11-18T19:52:15.418Z,100.00
2022-11-18T19:54:43.143Z,100.00
2022-11-18T19:57:11.119Z,100.00
2022-11-18T19:59:38.477Z,100.00
2022-11-18T20:02:06.538Z,100.00
2022-11-18T20:04:33.943Z,100.00
2022-11-18T20:07:01.642Z,100.00
2022-11-18T20:09:29.053Z,100.00
2022-11-18T20:11:57.141Z,100.00
2022-11-18T20:14:24.306Z,100.00
2022-11-18T20:16:52.030Z,100.00
2022-11-18T20:19:20.845Z,100.00
2022-11-18T20:21:52.739Z,100.00
2022-11-18T20:24:20.202Z,100.00
2022-11-18T20:26:47.716Z,100.00
2022-11-18T20:29:15.189Z,100.00
2022-11-18T20:31:43.336Z,100.00
2022-11-18T20:34:14.642Z,100.00
2022-11-18T20:36:42.509Z,100.00
2022-11-18T20:39:16.871Z,100.00
2022-11-18T20:42:04.656Z,100.00
2022-11-18T20:44:32.268Z,100.00
2022-11-18T20:46:59.920Z,100.00
2022-11-18T20:49:27.226Z,100.00
2022-11-18T20:51:54.807Z,100.00
2022-11-18T20:54:21.673Z,100.00
2022-11-18T20:56:48.745Z,100.00
2022-11-18T20:59:16.366Z,100.00
2022-11-18T21:01:43.929Z,100.00
2022-11-18T21:04:12.267Z,100.00
2022-11-18T21:06:39.647Z,100.00
2022-11-18T21:09:06.963Z,100.00
2022-11-18T21:11:35.886Z,100.00
2022-11-18T21:14:25.117Z,100.00
2022-11-18T21:16:55.714Z,100.00
2022-11-18T21:19:23.984Z,100.00
2022-11-18T21:21:54.108Z,100.00
2022-11-18T21:24:28.590Z,100.00
2022-11-18T21:26:57.943Z,100.00
2022-11-18T21:29:28.523Z,100.00
2022-11-18T21:31:57.905Z,100.00
2022-11-18T21:34:25.794Z,100.00
2022-11-18T21:36:54.911Z,100.00
2022-11-18T21:39:26.264Z,100.00
2022-11-18T21:41:56.619Z,100.00
2022-11-18T21:44:28.207Z,100.00
2022-11-18T21:46:59.897Z,100.00
2022-11-18T21:49:26.818Z,100.00
2022-11-18T21:51:54.039Z,100.00
2022-11-18T21:54:21.751Z,100.00
2022-11-18T21:56:49.027Z,100.00
2022-11-18T21:59:16.600Z,100.00
2022-11-18T22:01:44.276Z,100.00
2022-11-18T22:04:31.258Z,100.00
2022-11-18T22:06:58.588Z,100.00
2022-11-18T22:09:25.586Z,100.00
2022-11-18T22:11:52.851Z,100.00
2022-11-18T22:14:19.792Z,100.00
2022-11-18T22:16:47.272Z,100.00
2022-11-18T22:19:14.442Z,100.00
2022-11-18T22:21:41.785Z,100.00
2022-11-18T22:24:11.719Z,100.00
2022-11-18T22:26:38.884Z,100.00
2022-11-18T22:29:06.416Z,100.00
2022-11-18T22:31:33.952Z,100.00
2022-11-18T22:34:01.571Z,100.00
2022-11-18T22:36:32.391Z,100.00
2022-11-18T22:39:00.170Z,100.00
2022-11-18T22:42:04.016Z,100.00
2022-11-18T22:44:31.575Z,100.00
2022-11-18T22:46:58.963Z,100.00
2022-11-18T22:49:26.753Z,100.00
2022-11-18T22:51:54.463Z,100.00
2022-11-18T22:57:09.242Z,100.00
2022-11-18T22:59:36.590Z,100.00
2022-11-18T23:02:06.111Z,100.00
2022-11-18T23:04:33.772Z,100.00
2022-11-18T23:07:01.411Z,100.00
2022-11-18T23:09:29.185Z,100.00
2022-11-18T23:12:14.663Z,100.00
2022-11-18T23:14:42.487Z,100.00
2022-11-18T23:17:09.730Z,100.00
2022-11-18T23:19:42.054Z,100.00
2022-11-18T23:22:12.915Z,100.00
2022-11-18T23:24:40.162Z,100.00
2022-11-18T23:27:07.892Z,100.00
2022-11-18T23:29:35.014Z,100.00
2022-11-18T23:32:02.320Z,100.00
2022-11-18T23:34:29.232Z,100.00
2022-11-18T23:36:56.404Z,100.00
2022-11-18T23:39:23.445Z,100.00
2022-11-18T23:41:50.811Z,100.00
2022-11-18T23:44:17.759Z,100.00
2022-11-18T23:46:44.915Z,100.00
2022-11-18T23:49:13.063Z,100.00
2022-11-18T23:51:40.607Z,100.00
2022-11-18T23:54:08.623Z,100.00
2022-11-18T23:56:38.300Z,100.00
2022-11-18T23:59:06.729Z,100.00
